createdAt,value
2019-01-27T00:00:04.852Z,313.31
2019-01-27T00:01:04.875Z,313.45
2019-01-27T00:02:04.836Z,313.27
2019-01-27T00:03:04.823Z,313.21
2019-01-27T00:04:04.805Z,313.25
2019-01-27T00:05:04.800Z,313.31
2019-01-27T00:06:05.002Z,313.37
2019-01-27T00:07:04.779Z,313.21
2019-01-27T00:08:04.748Z,313.05
2019-01-27T00:09:04.746Z,313.32
2019-01-27T00:10:04.777Z,313.03
2019-01-27T00:11:04.738Z,313.08
2019-01-27T00:12:04.720Z,313.41
2019-01-27T00:13:04.702Z,313.11
2019-01-27T00:14:04.689Z,313.24
2019-01-27T00:15:04.692Z,313.17
2019-01-27T00:16:04.675Z,312.75
2019-01-27T00:17:04.654Z,312.45
2019-01-27T00:18:04.637Z,312.91
2019-01-27T00:19:04.643Z,312.66
2019-01-27T00:20:04.648Z,312.90
2019-01-27T00:21:04.609Z,312.65
2019-01-27T00:22:04.613Z,312.96
2019-01-27T00:23:04.602Z,312.90
2019-01-27T00:24:04.589Z,313.07
2019-01-27T00:25:04.592Z,312.85
2019-01-27T00:26:04.554Z,312.76
2019-01-27T00:27:04.543Z,312.53
2019-01-27T00:28:04.550Z,312.70
2019-01-27T00:29:04.523Z,312.62
2019-01-27T00:30:04.545Z,312.83
2019-01-27T00:31:04.512Z,312.87
2019-01-27T00:32:04.489Z,313.00
2019-01-27T00:33:04.527Z,312.60
2019-01-27T00:34:04.482Z,313.05
2019-01-27T00:35:04.490Z,312.89
2019-01-27T00:36:04.453Z,312.85
2019-01-27T00:37:04.441Z,313.06
2019-01-27T00:38:04.443Z,312.67
2019-01-27T00:39:04.421Z,312.83
2019-01-27T00:40:04.430Z,312.58
2019-01-27T00:41:04.394Z,312.70
2019-01-27T00:42:04.398Z,312.86
2019-01-27T00:43:04.384Z,312.52
2019-01-27T00:44:04.376Z,312.95
2019-01-27T00:45:04.364Z,312.56
2019-01-27T00:46:04.348Z,312.67
2019-01-27T00:47:04.319Z,312.33
2019-01-27T00:48:04.333Z,312.14
2019-01-27T00:49:04.464Z,313.13
2019-01-27T00:50:04.298Z,312.58
2019-01-27T00:51:04.313Z,312.56
2019-01-27T00:52:04.279Z,312.64
2019-01-27T00:53:04.256Z,312.55
2019-01-27T00:54:04.253Z,312.55
2019-01-27T00:55:04.258Z,312.37
2019-01-27T00:56:04.238Z,312.63
2019-01-27T00:57:04.260Z,312.32
2019-01-27T00:58:04.205Z,312.21
2019-01-27T00:59:04.197Z,312.34
2019-01-27T01:00:04.188Z,312.14
2019-01-27T01:01:04.193Z,312.63
2019-01-27T01:02:04.176Z,312.59
2019-01-27T01:03:04.173Z,312.85
2019-01-27T01:04:04.155Z,312.53
2019-01-27T01:05:04.121Z,312.54
2019-01-27T01:06:04.130Z,312.07
2019-01-27T01:07:04.122Z,312.56
2019-01-27T01:08:04.115Z,312.38
2019-01-27T01:09:04.097Z,312.72
2019-01-27T01:10:04.102Z,312.61
2019-01-27T01:11:04.082Z,312.42
2019-01-27T01:12:04.053Z,312.58
2019-01-27T01:13:04.071Z,312.59
2019-01-27T01:14:04.068Z,312.38
2019-01-27T01:15:04.026Z,312.65
2019-01-27T01:16:04.038Z,312.61
2019-01-27T01:17:04.012Z,312.43
2019-01-27T01:18:04.007Z,312.31
2019-01-27T01:19:03.985Z,312.59
2019-01-27T01:20:03.972Z,312.41
2019-01-27T01:21:03.966Z,312.55
2019-01-27T01:22:03.945Z,312.43
2019-01-27T01:23:04.040Z,312.70
2019-01-27T01:24:03.920Z,312.55
2019-01-27T01:25:03.907Z,312.71
2019-01-27T01:26:03.911Z,312.49
2019-01-27T01:27:03.906Z,312.52
2019-01-27T01:28:03.915Z,312.88
2019-01-27T01:29:03.927Z,312.26
2019-01-27T01:30:03.867Z,312.81
2019-01-27T01:31:03.855Z,312.75
2019-01-27T01:32:03.872Z,312.71
2019-01-27T01:33:03.853Z,312.61
2019-01-27T01:34:03.844Z,312.10
2019-01-27T01:35:03.813Z,312.29
2019-01-27T01:36:03.796Z,312.46
2019-01-27T01:37:03.774Z,312.75
2019-01-27T01:38:03.795Z,312.46
2019-01-27T01:39:03.767Z,312.24
2019-01-27T01:40:03.759Z,312.64
2019-01-27T01:41:03.743Z,312.25
2019-01-27T01:42:03.730Z,312.14
2019-01-27T01:43:03.754Z,312.40
2019-01-27T01:44:03.721Z,311.85
2019-01-27T01:45:03.699Z,312.44
2019-01-27T01:46:03.697Z,312.64
2019-01-27T01:47:03.682Z,312.29
2019-01-27T01:48:03.677Z,312.24
2019-01-27T01:49:03.691Z,312.52
2019-01-27T01:50:03.637Z,312.80
2019-01-27T01:51:03.623Z,312.15
2019-01-27T01:52:03.635Z,312.34
2019-01-27T01:53:03.616Z,312.30
2019-01-27T01:54:03.622Z,312.42
2019-01-27T01:55:03.590Z,312.23
2019-01-27T01:56:03.574Z,312.19
2019-01-27T01:57:03.561Z,312.52
2019-01-27T01:58:03.561Z,312.56
2019-01-27T01:59:03.565Z,312.74
2019-01-27T02:00:03.568Z,312.51
2019-01-27T02:01:03.571Z,312.63
2019-01-27T02:02:03.512Z,312.18
2019-01-27T02:03:03.504Z,312.55
2019-01-27T02:04:03.486Z,312.57
2019-01-27T02:05:03.488Z,312.65
2019-01-27T02:06:03.504Z,312.67
2019-01-27T02:07:03.468Z,312.57
2019-01-27T02:08:03.446Z,312.65
2019-01-27T02:09:03.427Z,312.61
2019-01-27T02:10:03.464Z,312.75
2019-01-27T02:11:03.432Z,312.51
2019-01-27T02:12:03.417Z,312.69
2019-01-27T02:13:03.405Z,312.75
2019-01-27T02:14:03.387Z,312.54
2019-01-27T02:15:03.369Z,312.82
2019-01-27T02:16:03.374Z,312.50
2019-01-27T02:17:03.347Z,312.71
2019-01-27T02:18:03.350Z,312.27
2019-01-27T02:19:03.337Z,312.78
2019-01-27T02:20:03.319Z,312.79
2019-01-27T02:21:03.350Z,312.70
2019-01-27T02:22:03.394Z,312.71
2019-01-27T02:23:03.287Z,312.78
2019-01-27T02:24:03.282Z,312.41
2019-01-27T02:25:03.271Z,312.28
2019-01-27T02:26:03.255Z,312.64
2019-01-27T02:27:03.257Z,313.21
2019-01-27T02:28:03.220Z,312.86
2019-01-27T02:29:03.209Z,312.81
2019-01-27T02:30:03.219Z,312.81
2019-01-27T02:31:03.202Z,312.94
2019-01-27T02:32:03.210Z,312.23
2019-01-27T02:33:03.207Z,312.47
2019-01-27T02:34:03.162Z,312.30
2019-01-27T02:35:03.152Z,312.53
2019-01-27T02:36:03.144Z,312.20
2019-01-27T02:37:03.134Z,312.41
2019-01-27T02:38:03.161Z,312.65
2019-01-27T02:39:03.116Z,312.64
2019-01-27T02:40:03.108Z,312.52
2019-01-27T02:41:03.090Z,312.42
2019-01-27T02:42:03.091Z,312.19
2019-01-27T02:43:03.084Z,312.23
2019-01-27T02:44:03.110Z,312.58
2019-01-27T02:45:03.054Z,312.35
2019-01-27T02:46:03.032Z,312.50
2019-01-27T02:47:03.028Z,312.68
2019-01-27T02:48:03.028Z,312.59
2019-01-27T02:49:03.023Z,312.39
2019-01-27T02:50:02.999Z,312.17
2019-01-27T02:51:03.006Z,312.84
2019-01-27T02:52:02.981Z,312.53
2019-01-27T02:53:02.966Z,312.44
2019-01-27T02:54:02.968Z,312.40
2019-01-27T02:55:02.949Z,312.34
2019-01-27T02:56:02.939Z,312.34
2019-01-27T02:57:02.922Z,312.14
2019-01-27T02:58:02.905Z,312.35
2019-01-27T02:59:03.513Z,312.10
2019-01-27T03:00:02.892Z,312.36
2019-01-27T03:01:02.865Z,312.44
2019-01-27T03:02:02.873Z,312.54
2019-01-27T03:03:02.868Z,312.51
2019-01-27T03:04:02.863Z,312.43
2019-01-27T03:05:02.832Z,312.61
2019-01-27T03:06:02.864Z,312.56
2019-01-27T03:07:02.807Z,312.31
2019-01-27T03:08:02.793Z,312.43
2019-01-27T03:09:02.826Z,312.54
2019-01-27T03:10:02.783Z,312.36
2019-01-27T03:11:02.774Z,312.28
2019-01-27T03:12:02.777Z,312.15
2019-01-27T03:13:02.740Z,312.16
2019-01-27T03:14:03.451Z,312.58
2019-01-27T03:15:02.730Z,312.49
2019-01-27T03:16:02.731Z,312.81
2019-01-27T03:17:02.738Z,312.71
2019-01-27T03:18:02.681Z,312.43
2019-01-27T03:19:02.679Z,312.48
2019-01-27T03:20:02.667Z,312.48
2019-01-27T03:21:02.673Z,312.88
2019-01-27T03:22:02.649Z,312.17
2019-01-27T03:23:02.664Z,312.25
2019-01-27T03:24:02.624Z,312.37
2019-01-27T03:25:02.621Z,312.41
2019-01-27T03:26:02.636Z,312.07
2019-01-27T03:27:02.608Z,312.74
2019-01-27T03:28:02.583Z,312.29
2019-01-27T03:29:02.582Z,312.78
2019-01-27T03:30:02.561Z,312.37
2019-01-27T03:31:02.555Z,312.58
2019-01-27T03:32:02.569Z,312.29
2019-01-27T03:33:02.542Z,313.06
2019-01-27T03:34:02.538Z,312.11
2019-01-27T03:35:02.527Z,312.57
2019-01-27T03:36:02.496Z,312.49
2019-01-27T03:37:02.491Z,312.56
2019-01-27T03:38:02.492Z,312.24
2019-01-27T03:39:02.453Z,312.71
2019-01-27T03:40:02.478Z,312.49
2019-01-27T03:41:02.429Z,312.20
2019-01-27T03:42:02.433Z,312.37
2019-01-27T03:43:02.430Z,312.31
2019-01-27T03:44:02.414Z,312.18
2019-01-27T03:45:02.387Z,312.47
2019-01-27T03:46:02.431Z,312.55
2019-01-27T03:47:02.375Z,312.42
2019-01-27T03:48:02.370Z,312.37
2019-01-27T03:49:02.355Z,312.40
2019-01-27T03:50:02.347Z,312.44
2019-01-27T03:51:02.324Z,312.57
2019-01-27T03:52:02.335Z,312.51
2019-01-27T03:53:02.340Z,312.45
2019-01-27T03:54:02.603Z,312.18
2019-01-27T03:55:02.285Z,312.09
2019-01-27T03:56:02.288Z,312.38
2019-01-27T03:57:02.274Z,312.19
2019-01-27T03:58:02.261Z,312.14
2019-01-27T03:59:02.268Z,312.30
2019-01-27T04:00:02.244Z,312.28
2019-01-27T04:01:02.223Z,312.13
2019-01-27T04:02:02.215Z,312.17
2019-01-27T04:03:02.187Z,312.17
2019-01-27T04:04:02.200Z,312.42
2019-01-27T04:05:02.174Z,312.23
2019-01-27T04:06:02.158Z,312.25
2019-01-27T04:07:02.165Z,312.26
2019-01-27T04:08:02.190Z,312.41
2019-01-27T04:09:02.136Z,312.17
2019-01-27T04:10:02.113Z,312.42
2019-01-27T04:11:02.104Z,312.56
2019-01-27T04:12:02.126Z,312.63
2019-01-27T04:13:02.095Z,313.00
2019-01-27T04:14:02.081Z,312.51
2019-01-27T04:15:02.071Z,312.25
2019-01-27T04:16:02.046Z,312.24
2019-01-27T04:17:02.036Z,312.56
2019-01-27T04:18:02.055Z,312.72
2019-01-27T04:19:02.027Z,312.67
2019-01-27T04:20:02.032Z,312.28
2019-01-27T04:21:02.011Z,312.46
2019-01-27T04:22:01.989Z,312.22
2019-01-27T04:23:02.006Z,312.20
2019-01-27T04:24:01.970Z,312.56
2019-01-27T04:25:01.962Z,312.55
2019-01-27T04:26:01.952Z,312.49
2019-01-27T04:27:01.944Z,312.47
2019-01-27T04:28:01.933Z,312.43
2019-01-27T04:29:01.936Z,312.66
2019-01-27T04:30:02.058Z,312.17
2019-01-27T04:31:01.892Z,312.10
2019-01-27T04:32:01.895Z,312.55
2019-01-27T04:33:01.895Z,312.89
2019-01-27T04:34:01.871Z,312.64
2019-01-27T04:35:01.887Z,312.39
2019-01-27T04:36:01.840Z,312.36
2019-01-27T04:37:01.851Z,312.28
2019-01-27T04:38:01.842Z,312.86
2019-01-27T04:39:01.891Z,312.75
2019-01-27T04:40:01.807Z,312.38
2019-01-27T04:41:01.787Z,312.70
2019-01-27T04:42:01.772Z,312.57
2019-01-27T04:43:01.758Z,312.21
2019-01-27T04:44:01.750Z,312.77
2019-01-27T04:45:01.776Z,312.55
2019-01-27T04:46:01.728Z,313.06
2019-01-27T04:47:01.724Z,312.48
2019-01-27T04:48:01.703Z,312.03
2019-01-27T04:49:01.704Z,312.40
2019-01-27T04:50:01.697Z,312.58
2019-01-27T04:51:01.703Z,312.61
2019-01-27T04:52:01.668Z,312.66
2019-01-27T04:53:01.656Z,312.43
2019-01-27T04:54:01.635Z,312.24
2019-01-27T04:55:01.626Z,312.74
2019-01-27T04:56:01.616Z,312.30
2019-01-27T04:57:01.622Z,312.51
2019-01-27T04:58:01.601Z,312.42
2019-01-27T04:59:01.593Z,312.35
2019-01-27T05:00:01.583Z,312.19
2019-01-27T05:01:01.578Z,312.53
2019-01-27T05:02:01.543Z,312.45
2019-01-27T05:03:01.536Z,312.34
2019-01-27T05:04:01.545Z,312.41
2019-01-27T05:05:01.536Z,312.16
2019-01-27T05:06:01.528Z,312.36
2019-01-27T05:07:01.508Z,312.18
2019-01-27T05:08:01.485Z,312.25
2019-01-27T05:09:01.476Z,312.75
2019-01-27T05:10:01.482Z,312.67
2019-01-27T05:11:01.490Z,312.19
2019-01-27T05:12:01.455Z,312.64
2019-01-27T05:13:01.447Z,312.46
2019-01-27T05:14:01.436Z,313.23
2019-01-27T05:15:01.417Z,312.35
2019-01-27T05:16:01.399Z,312.72
2019-01-27T05:17:01.415Z,312.32
2019-01-27T05:18:01.394Z,312.38
2019-01-27T05:19:01.378Z,312.40
2019-01-27T05:20:01.360Z,312.45
2019-01-27T05:21:01.346Z,312.55
2019-01-27T05:22:01.370Z,312.50
2019-01-27T05:23:01.335Z,312.43
2019-01-27T05:24:01.335Z,312.47
2019-01-27T05:25:01.341Z,312.30
2019-01-27T05:26:01.289Z,312.02
2019-01-27T05:27:01.557Z,312.61
2019-01-27T05:28:01.271Z,312.78
2019-01-27T05:29:01.264Z,312.80
2019-01-27T05:30:01.252Z,312.50
2019-01-27T05:31:01.238Z,312.25
2019-01-27T05:32:01.261Z,312.64
2019-01-27T05:33:01.227Z,312.57
2019-01-27T05:34:01.203Z,312.18
2019-01-27T05:35:01.230Z,312.73
2019-01-27T05:36:01.191Z,312.36
2019-01-27T05:37:01.192Z,312.39
2019-01-27T05:38:01.172Z,312.49
2019-01-27T05:39:01.160Z,312.32
2019-01-27T05:40:01.135Z,312.83
2019-01-27T05:41:01.154Z,312.51
2019-01-27T05:42:01.136Z,312.37
2019-01-27T05:43:01.110Z,312.66
2019-01-27T05:44:01.105Z,312.53
2019-01-27T05:45:01.100Z,312.63
2019-01-27T05:46:01.092Z,312.81
2019-01-27T05:47:01.086Z,312.76
2019-01-27T05:48:01.064Z,312.60
2019-01-27T05:49:01.048Z,312.68
2019-01-27T05:50:01.031Z,312.80
2019-01-27T05:51:01.025Z,312.99
2019-01-27T05:52:01.022Z,312.49
2019-01-27T05:53:00.989Z,312.68
2019-01-27T05:54:00.999Z,312.85
2019-01-27T05:55:00.998Z,312.62
2019-01-27T05:56:00.975Z,312.33
2019-01-27T05:57:00.989Z,312.46
2019-01-27T05:58:00.947Z,312.68
2019-01-27T05:59:00.932Z,312.38
2019-01-27T06:00:00.930Z,312.34
2019-01-27T06:01:00.916Z,312.90
2019-01-27T06:02:00.913Z,312.54
2019-01-27T06:03:00.900Z,312.22
2019-01-27T06:04:00.901Z,312.43
2019-01-27T06:05:00.909Z,312.41
2019-01-27T06:06:00.853Z,313.25
2019-01-27T06:07:00.837Z,312.78
2019-01-27T06:08:00.860Z,312.48
2019-01-27T06:09:00.834Z,313.03
2019-01-27T06:10:00.850Z,312.82
2019-01-27T06:11:00.797Z,312.68
2019-01-27T06:12:00.799Z,313.13
2019-01-27T06:13:00.779Z,312.89
2019-01-27T06:14:00.795Z,312.71
2019-01-27T06:15:00.804Z,312.38
2019-01-27T06:16:00.751Z,312.33
2019-01-27T06:17:00.750Z,312.89
2019-01-27T06:18:00.722Z,312.52
2019-01-27T06:19:00.725Z,312.68
2019-01-27T06:20:01.546Z,312.42
2019-01-27T06:21:00.770Z,312.53
2019-01-27T06:22:01.550Z,312.73
2019-01-27T06:23:00.684Z,312.74
2019-01-27T06:24:00.690Z,312.36
2019-01-27T06:25:00.638Z,312.10
2019-01-27T06:26:00.666Z,312.83
2019-01-27T06:27:00.678Z,312.43
2019-01-27T06:28:00.705Z,312.77
2019-01-27T06:29:00.623Z,312.81
2019-01-27T06:30:01.477Z,312.32
2019-01-27T06:31:00.580Z,312.85
2019-01-27T06:32:00.634Z,312.50
2019-01-27T06:33:00.589Z,312.70
2019-01-27T06:34:00.628Z,313.03
2019-01-27T06:35:00.545Z,312.92
2019-01-27T06:36:00.604Z,312.78
2019-01-27T06:37:00.535Z,313.19
2019-01-27T06:38:00.494Z,312.90
2019-01-27T06:39:00.482Z,312.99
2019-01-27T06:40:00.485Z,313.15
2019-01-27T06:41:00.494Z,312.45
2019-01-27T06:42:00.492Z,312.64
2019-01-27T06:43:00.449Z,312.69
2019-01-27T06:44:00.446Z,312.82
2019-01-27T06:45:00.423Z,312.54
2019-01-27T06:46:00.431Z,312.29
2019-01-27T06:47:00.417Z,311.92
2019-01-27T06:48:00.442Z,312.46
2019-01-27T06:49:00.390Z,312.51
2019-01-27T06:50:00.371Z,312.79
2019-01-27T06:51:00.357Z,312.61
2019-01-27T06:52:00.645Z,312.85
2019-01-27T06:53:00.342Z,312.52
2019-01-27T06:54:00.339Z,312.94
2019-01-27T06:55:00.333Z,312.71
2019-01-27T06:56:00.309Z,312.91
2019-01-27T06:57:00.301Z,312.51
2019-01-27T06:58:00.311Z,313.00
2019-01-27T06:59:00.298Z,313.06
2019-01-27T07:00:00.269Z,312.89
2019-01-27T07:01:00.256Z,313.55
2019-01-27T07:02:00.272Z,313.62
2019-01-27T07:03:00.572Z,312.85
2019-01-27T07:04:00.224Z,313.43
2019-01-27T07:05:00.264Z,312.97
2019-01-27T07:06:00.208Z,312.88
2019-01-27T07:07:00.194Z,312.88
2019-01-27T07:08:00.214Z,313.13
2019-01-27T07:09:00.185Z,313.34
2019-01-27T07:10:00.248Z,313.18
2019-01-27T07:11:00.156Z,313.10
2019-01-27T07:12:00.164Z,312.92
2019-01-27T07:13:00.131Z,313.27
2019-01-27T07:14:00.142Z,312.97
2019-01-27T07:15:00.171Z,312.95
2019-01-27T07:16:00.095Z,313.01
2019-01-27T07:17:00.077Z,313.01
2019-01-27T07:18:00.082Z,313.23
2019-01-27T07:19:00.087Z,313.58
2019-01-27T07:20:00.052Z,313.40
2019-01-27T07:21:00.117Z,312.88
2019-01-27T07:22:00.025Z,313.57
2019-01-27T07:23:00.014Z,313.16
2019-01-27T07:24:00.019Z,312.64
2019-01-27T07:25:00.004Z,312.44
2019-01-27T07:25:59.987Z,313.25
2019-01-27T07:26:59.977Z,313.22
2019-01-27T07:27:59.951Z,312.86
2019-01-27T07:28:59.998Z,312.48
2019-01-27T07:29:59.971Z,312.83
2019-01-27T07:30:59.935Z,313.30
2019-01-27T07:31:59.923Z,312.88
2019-01-27T07:32:59.921Z,313.39
2019-01-27T07:33:59.896Z,312.70
2019-01-27T07:34:59.890Z,313.00
2019-01-27T07:35:59.896Z,313.34
2019-01-27T07:36:59.858Z,313.00
2019-01-27T07:37:59.863Z,312.88
2019-01-27T07:38:59.867Z,313.05
2019-01-27T07:39:59.846Z,313.40
2019-01-27T07:40:59.829Z,313.29
2019-01-27T07:41:59.823Z,313.02
2019-01-27T07:42:59.794Z,313.56
2019-01-27T07:44:00.613Z,313.19
2019-01-27T07:44:59.792Z,313.40
2019-01-27T07:45:59.759Z,313.24
2019-01-27T07:46:59.865Z,313.63
2019-01-27T07:47:59.740Z,313.32
2019-01-27T07:48:59.748Z,313.49
2019-01-27T07:49:59.731Z,313.85
2019-01-27T07:50:59.719Z,313.49
2019-01-27T07:52:00.090Z,313.23
2019-01-27T07:52:59.692Z,313.47
2019-01-27T07:53:59.681Z,313.50
2019-01-27T07:54:59.665Z,313.64
2019-01-27T07:55:59.662Z,313.93
2019-01-27T07:57:00.083Z,313.45
2019-01-27T07:57:59.673Z,313.42
2019-01-27T07:58:59.634Z,313.40
2019-01-27T07:59:59.611Z,313.49
2019-01-27T08:00:59.599Z,313.70
2019-01-27T08:01:59.601Z,313.13
2019-01-27T08:02:59.604Z,313.50
2019-01-27T08:03:59.609Z,313.23
2019-01-27T08:04:59.566Z,313.52
2019-01-27T08:05:59.548Z,313.46
2019-01-27T08:06:59.559Z,313.45
2019-01-27T08:07:59.532Z,313.28
2019-01-27T08:08:59.537Z,313.48
2019-01-27T08:09:59.533Z,313.24
2019-01-27T08:10:59.521Z,313.42
2019-01-27T08:11:59.496Z,313.61
2019-01-27T08:12:59.489Z,313.54
2019-01-27T08:13:59.465Z,313.69
2019-01-27T08:14:59.469Z,313.76
2019-01-27T08:15:59.474Z,313.49
2019-01-27T08:16:59.435Z,313.60
2019-01-27T08:17:59.412Z,313.79
2019-01-27T08:18:59.443Z,313.33
2019-01-27T08:19:59.406Z,313.59
2019-01-27T08:20:59.375Z,313.55
2019-01-27T08:21:59.380Z,313.77
2019-01-27T08:22:59.365Z,313.20
2019-01-27T08:23:59.357Z,313.51
2019-01-27T08:24:59.362Z,313.23
2019-01-27T08:25:59.380Z,313.33
2019-01-27T08:26:59.319Z,313.56
2019-01-27T08:27:59.324Z,313.58
2019-01-27T08:28:59.288Z,313.23
2019-01-27T08:29:59.290Z,313.55
2019-01-27T08:30:59.284Z,313.68
2019-01-27T08:31:59.280Z,313.80
2019-01-27T08:32:59.244Z,313.62
2019-01-27T08:33:59.245Z,313.72
2019-01-27T08:34:59.232Z,313.65
2019-01-27T08:35:59.219Z,313.77
2019-01-27T08:36:59.245Z,313.53
2019-01-27T08:37:59.206Z,313.65
2019-01-27T08:38:59.199Z,313.70
2019-01-27T08:39:59.174Z,314.01
2019-01-27T08:40:59.179Z,313.82
2019-01-27T08:41:59.161Z,313.51
2019-01-27T08:42:59.167Z,313.82
2019-01-27T08:43:59.172Z,313.73
2019-01-27T08:44:59.178Z,313.43
2019-01-27T08:45:59.139Z,313.85
2019-01-27T08:46:59.110Z,313.62
2019-01-27T08:47:59.098Z,313.43
2019-01-27T08:48:59.084Z,314.07
2019-01-27T08:49:59.066Z,313.73
2019-01-27T08:50:59.059Z,313.20
2019-01-27T08:51:59.089Z,313.61
2019-01-27T08:52:59.032Z,313.91
2019-01-27T08:53:59.036Z,313.57
2019-01-27T08:54:59.019Z,314.03
2019-01-27T08:55:59.008Z,313.91
2019-01-27T08:56:59.045Z,313.90
2019-01-27T08:57:58.984Z,313.52
2019-01-27T08:58:58.971Z,313.69
2019-01-27T08:59:58.954Z,312.85
2019-01-27T09:00:58.945Z,312.99
2019-01-27T09:01:58.942Z,312.91
2019-01-27T09:02:58.951Z,313.17
2019-01-27T09:03:58.920Z,313.45
2019-01-27T09:04:58.907Z,313.55
2019-01-27T09:05:58.926Z,312.66
2019-01-27T09:06:58.888Z,312.95
2019-01-27T09:07:58.912Z,313.61
2019-01-27T09:08:58.863Z,313.20
2019-01-27T09:09:58.854Z,313.59
2019-01-27T09:10:58.840Z,313.09
2019-01-27T09:11:58.835Z,313.49
2019-01-27T09:12:58.815Z,313.35
2019-01-27T09:13:58.838Z,313.64
2019-01-27T09:14:58.799Z,313.60
2019-01-27T09:15:58.799Z,313.80
2019-01-27T09:16:58.783Z,313.60
2019-01-27T09:17:58.773Z,313.51
2019-01-27T09:18:58.769Z,313.49
2019-01-27T09:19:58.739Z,313.66
2019-01-27T09:20:58.738Z,313.37
2019-01-27T09:21:58.722Z,313.89
2019-01-27T09:22:58.707Z,314.23
2019-01-27T09:23:58.742Z,314.02
2019-01-27T09:24:58.718Z,313.82
2019-01-27T09:25:58.690Z,313.98
2019-01-27T09:26:58.675Z,313.47
2019-01-27T09:27:58.652Z,313.04
2019-01-27T09:28:58.647Z,313.81
2019-01-27T09:29:58.675Z,313.12
2019-01-27T09:30:58.634Z,313.17
2019-01-27T09:31:58.610Z,312.63
2019-01-27T09:32:58.604Z,313.29
2019-01-27T09:33:58.588Z,313.22
2019-01-27T09:34:58.611Z,313.38
2019-01-27T09:35:58.602Z,313.33
2019-01-27T09:36:58.577Z,313.17
2019-01-27T09:37:58.541Z,312.83
2019-01-27T09:38:58.549Z,311.95
2019-01-27T09:39:58.549Z,312.56
2019-01-27T09:40:58.532Z,312.67
2019-01-27T09:41:58.571Z,311.69
2019-01-27T09:42:58.510Z,311.95
2019-01-27T09:43:58.488Z,312.00
2019-01-27T09:44:59.525Z,311.97
2019-01-27T09:46:05.925Z,312.11
2019-01-27T09:46:59.453Z,311.90
2019-01-27T09:47:58.443Z,312.17
2019-01-27T09:48:58.445Z,311.75
2019-01-27T09:49:58.430Z,312.52
2019-01-27T09:50:58.445Z,313.02
2019-01-27T09:51:58.405Z,313.02
2019-01-27T09:52:58.387Z,312.30
2019-01-27T09:53:58.409Z,311.57
2019-01-27T09:54:58.367Z,312.29
2019-01-27T09:55:58.362Z,312.42
2019-01-27T09:56:58.397Z,312.06
2019-01-27T09:57:58.318Z,312.94
2019-01-27T09:58:58.319Z,312.56
2019-01-27T09:59:59.004Z,312.63
2019-01-27T10:00:58.298Z,312.15
2019-01-27T10:01:58.299Z,312.95
2019-01-27T10:02:58.322Z,313.03
2019-01-27T10:03:58.286Z,312.96
2019-01-27T10:04:58.272Z,312.88
2019-01-27T10:05:58.262Z,312.08
2019-01-27T10:06:58.227Z,312.27
2019-01-27T10:07:58.242Z,313.58
2019-01-27T10:08:58.217Z,312.33
2019-01-27T10:09:58.391Z,313.10
2019-01-27T10:10:58.243Z,311.98
2019-01-27T10:11:58.173Z,312.47
2019-01-27T10:12:58.194Z,312.93
2019-01-27T10:13:58.159Z,312.72
2019-01-27T10:14:58.184Z,312.51
2019-01-27T10:15:58.143Z,312.45
2019-01-27T10:16:58.123Z,311.98
2019-01-27T10:17:58.102Z,312.52
2019-01-27T10:18:58.130Z,312.32
2019-01-27T10:19:58.083Z,312.62
2019-01-27T10:20:58.074Z,312.92
2019-01-27T10:21:58.109Z,312.77
2019-01-27T10:22:58.062Z,312.93
2019-01-27T10:23:58.043Z,312.60
2019-01-27T10:24:58.118Z,313.43
2019-01-27T10:25:58.030Z,312.93
2019-01-27T10:26:58.019Z,312.83
2019-01-27T10:27:58.450Z,313.08
2019-01-27T10:28:57.997Z,313.43
2019-01-27T10:29:57.971Z,313.43
2019-01-27T10:30:57.975Z,313.32
2019-01-27T10:31:57.956Z,313.67
2019-01-27T10:32:58.507Z,312.82
2019-01-27T10:33:57.936Z,313.01
2019-01-27T10:34:59.448Z,312.54
2019-01-27T10:35:57.915Z,312.52
2019-01-27T10:36:57.906Z,312.62
2019-01-27T10:37:57.896Z,313.11
2019-01-27T10:38:57.957Z,312.89
2019-01-27T10:39:57.868Z,312.26
2019-01-27T10:40:58.349Z,312.67
2019-01-27T10:41:57.845Z,313.25
2019-01-27T10:42:57.835Z,313.09
2019-01-27T10:43:57.826Z,312.49
2019-01-27T10:44:57.830Z,312.27
2019-01-27T10:45:57.824Z,312.47
2019-01-27T10:46:57.797Z,312.69
2019-01-27T10:47:57.792Z,312.70
2019-01-27T10:48:57.782Z,311.83
2019-01-27T10:49:57.793Z,312.96
2019-01-27T10:50:57.744Z,312.71
2019-01-27T10:51:57.744Z,312.58
2019-01-27T10:52:57.721Z,312.35
2019-01-27T10:53:57.726Z,313.30
2019-01-27T10:54:57.728Z,313.09
2019-01-27T10:55:57.716Z,312.88
2019-01-27T10:56:57.678Z,312.54
2019-01-27T10:57:57.672Z,312.84
2019-01-27T10:58:57.666Z,312.14
2019-01-27T10:59:57.659Z,312.08
2019-01-27T11:00:57.674Z,312.49
2019-01-27T11:01:57.629Z,311.96
2019-01-27T11:02:57.624Z,311.97
2019-01-27T11:03:57.606Z,312.18
2019-01-27T11:04:57.613Z,312.62
2019-01-27T11:05:57.609Z,312.78
2019-01-27T11:06:57.587Z,311.98
2019-01-27T11:07:57.599Z,312.69
2019-01-27T11:08:57.572Z,312.61
2019-01-27T11:09:57.535Z,312.97
2019-01-27T11:10:57.595Z,313.27
2019-01-27T11:11:57.531Z,312.52
2019-01-27T11:12:57.516Z,312.53
2019-01-27T11:13:57.494Z,312.57
2019-01-27T11:14:57.487Z,312.72
2019-01-27T11:15:57.524Z,312.76
2019-01-27T11:16:57.488Z,312.99
2019-01-27T11:17:57.462Z,313.36
2019-01-27T11:18:57.461Z,313.15
2019-01-27T11:19:57.439Z,313.21
2019-01-27T11:20:57.430Z,313.05
2019-01-27T11:21:57.448Z,313.05
2019-01-27T11:22:57.433Z,313.43
2019-01-27T11:23:57.404Z,313.17
2019-01-27T11:24:57.374Z,313.70
2019-01-27T11:26:00.764Z,312.62
2019-01-27T11:26:57.405Z,313.22
2019-01-27T11:27:57.346Z,313.45
2019-01-27T11:28:57.340Z,313.48
2019-01-27T11:29:57.333Z,312.52
2019-01-27T11:30:57.334Z,312.75
2019-01-27T11:31:57.309Z,312.85
2019-01-27T11:32:57.328Z,312.61
2019-01-27T11:33:57.283Z,312.81
2019-01-27T11:34:57.271Z,313.38
2019-01-27T11:35:57.252Z,312.70
2019-01-27T11:36:57.239Z,313.25
2019-01-27T11:37:57.257Z,313.23
2019-01-27T11:38:57.285Z,313.53
2019-01-27T11:39:57.232Z,312.97
2019-01-27T11:40:57.220Z,313.49
2019-01-27T11:41:57.189Z,312.61
2019-01-27T11:42:57.186Z,312.88
2019-01-27T11:43:57.177Z,313.43
2019-01-27T11:44:57.198Z,313.21
2019-01-27T11:45:57.149Z,313.14
2019-01-27T11:46:57.139Z,313.63
2019-01-27T11:47:57.135Z,313.17
2019-01-27T11:48:57.110Z,313.11
2019-01-27T11:49:58.404Z,313.04
2019-01-27T11:50:57.139Z,313.15
2019-01-27T11:51:57.098Z,312.39
2019-01-27T11:52:57.084Z,312.64
2019-01-27T11:53:57.068Z,312.82
2019-01-27T11:54:57.047Z,312.90
2019-01-27T11:55:57.034Z,312.77
2019-01-27T11:56:57.065Z,312.50
2019-01-27T11:57:57.019Z,313.35
2019-01-27T11:58:57.023Z,312.45
2019-01-27T11:59:57.005Z,312.77
2019-01-27T12:00:56.987Z,312.54
2019-01-27T12:01:56.981Z,312.27
2019-01-27T12:02:57.000Z,312.44
2019-01-27T12:03:56.959Z,313.02
2019-01-27T12:04:56.954Z,312.71
2019-01-27T12:05:56.969Z,312.50
2019-01-27T12:06:56.913Z,313.05
2019-01-27T12:07:56.926Z,312.95
2019-01-27T12:08:56.927Z,312.61
2019-01-27T12:09:56.891Z,312.83
2019-01-27T12:10:56.902Z,312.45
2019-01-27T12:11:56.874Z,313.10
2019-01-27T12:12:56.890Z,313.23
2019-01-27T12:13:56.844Z,312.52
2019-01-27T12:14:56.828Z,313.22
2019-01-27T12:15:56.834Z,312.85
2019-01-27T12:16:56.850Z,312.73
2019-01-27T12:17:56.796Z,313.10
2019-01-27T12:18:56.807Z,313.69
2019-01-27T12:19:56.776Z,312.92
2019-01-27T12:20:56.759Z,312.48
2019-01-27T12:21:56.758Z,312.93
2019-01-27T12:22:56.756Z,312.99
2019-01-27T12:23:56.764Z,313.36
2019-01-27T12:24:56.727Z,313.16
2019-01-27T12:25:56.722Z,312.70
2019-01-27T12:26:56.701Z,313.10
2019-01-27T12:27:56.692Z,312.95